»·PEaware :: N261AB KSNA-KPHX

N261AB :: KSNA-KPHX

FLIGHT INFORMATION

Flight Status: Arrived
Operator: Privately registered:
United States
More flights under this callsign
Pilot: Brian K. (18535)
Aircraft: Unknown
(EPIC)
More flights by this aircraft type
Origin: KSNA John Wayne-Orange Co
United States
Destination: KPHX Phoenix Sky Harbor Intl
United States
More flights between these airports :: More routes between these airports
Route: PIGGN2 CNERY BLH BLH5
File this flight plan on PilotEdge
Remarks:
Altitude:
(Current/Filed)
23,000ft
Speed:
(Current/Filed)
280kts
Departed: 30-Jan-20 05:30 PM
Arrived: 30-Jan-20 06:40 PM
Distance/Time
Traveled:
293nm/1:10
Distance/Time
To Go:
Arrived

Flight Plot

Page will automatically refresh every two minutes.

Flight plan parsing failed; only flown route is shown


Map Options




Map Legend


Flown Route
Filed Route
Departure Airport
Arrival Airport
Navaid (VOR, NDB)
Fix

Horizontal Profiles

Position Reports

Time Latitude Longitude Heading Altitude Ground
Speed
30-Jan-20 17:09 33.667219 -117.872100 220 59ft 0kts
30-Jan-20 17:10 33.667219 -117.872100 220 59ft 0kts
30-Jan-20 17:11 33.667219 -117.872100 220 59ft 0kts
30-Jan-20 17:12 33.667219 -117.872100 220 59ft 0kts
30-Jan-20 17:13 33.667219 -117.872100 220 59ft 0kts
30-Jan-20 17:14 33.667219 -117.872100 220 59ft 0kts
30-Jan-20 17:15 33.667219 -117.872100 220 59ft 0kts
30-Jan-20 17:16 33.667219 -117.872100 220 59ft 0kts
30-Jan-20 17:17 33.667219 -117.872100 220 59ft 0kts
30-Jan-20 17:18 33.667219 -117.872100 220 59ft 0kts
30-Jan-20 17:19 33.667219 -117.872100 220 59ft 0kts
30-Jan-20 17:20 33.667219 -117.872100 220 59ft 0kts
30-Jan-20 17:21 33.667219 -117.872100 220 59ft 0kts
30-Jan-20 17:22 33.669250 -117.870804 40 59ft 15kts
30-Jan-20 17:23 33.672419 -117.867946 26 59ft 17kts
30-Jan-20 17:24 33.675555 -117.866184 25 59ft 11kts
30-Jan-20 17:25 33.678943 -117.864036 26 59ft 9kts
30-Jan-20 17:26 33.679934 -117.863641 295 59ft 0kts
30-Jan-20 17:27 33.679934 -117.863641 295 59ft 0kts
30-Jan-20 17:28 33.680155 -117.864053 304 59ft 4kts
30-Jan-20 17:29 33.665545 -117.871772 202 440ft 182kts
30-Jan-20 17:30 33.607009 -117.890757 211 2563ft 246kts
30-Jan-20 17:31 33.539819 -117.879381 154 4006ft 257kts
30-Jan-20 17:32 33.492564 -117.820379 115 5828ft 257kts
30-Jan-20 17:33 33.477629 -117.742186 80 8224ft 240kts
30-Jan-20 17:34 33.494456 -117.670301 54 10637ft 216kts
30-Jan-20 17:35 33.523203 -117.609881 54 13029ft 202kts
30-Jan-20 17:36 33.551082 -117.551324 53 15431ft 211kts
30-Jan-20 17:37 33.579388 -117.487559 73 17831ft 231kts
30-Jan-20 17:38 33.560404 -117.410051 101 20235ft 245kts
30-Jan-20 17:39 33.536928 -117.335256 101 22602ft 237kts
30-Jan-20 17:40 33.511381 -117.253835 103 23137ft 295kts
30-Jan-20 17:41 33.503409 -117.156552 84 23131ft 314kts
30-Jan-20 17:42 33.501233 -117.050907 84 23128ft 325kts
30-Jan-20 17:43 33.498935 -116.941563 83 23128ft 330kts
30-Jan-20 17:44 33.497334 -116.832289 83 23128ft 332kts
30-Jan-20 17:45 33.496089 -116.723627 82 23128ft 333kts
30-Jan-20 17:46 33.494739 -116.613864 83 23127ft 334kts
30-Jan-20 17:47 33.493267 -116.502583 83 23115ft 334kts
30-Jan-20 17:48 33.491701 -116.390785 83 23103ft 334kts
30-Jan-20 17:49 33.490050 -116.279532 83 23100ft 334kts
30-Jan-20 17:50 33.488306 -116.168426 83 23101ft 334kts
30-Jan-20 17:51 33.486492 -116.058919 83 23101ft 334kts
30-Jan-20 17:52 33.509261 -115.955204 62 23101ft 318kts
30-Jan-20 17:53 33.538495 -115.855125 62 23101ft 318kts
30-Jan-20 17:54 33.567780 -115.754643 62 23101ft 318kts
30-Jan-20 17:55 33.596651 -115.655218 62 23100ft 318kts
30-Jan-20 17:56 33.619904 -115.553437 81 23125ft 332kts
30-Jan-20 17:57 33.617559 -115.442370 84 23119ft 334kts
30-Jan-20 17:58 33.614334 -115.331918 84 23119ft 335kts
30-Jan-20 17:59 33.610960 -115.219937 84 23124ft 335kts
30-Jan-20 18:00 33.607597 -115.111635 84 23126ft 335kts
30-Jan-20 18:01 33.604010 -114.999161 84 23127ft 337kts
30-Jan-20 18:02 33.600381 -114.888545 84 23127ft 338kts
30-Jan-20 18:03 33.596644 -114.777705 84 23127ft 338kts
30-Jan-20 18:04 33.587669 -114.666078 88 23128ft 342kts
30-Jan-20 18:05 33.577570 -114.552689 88 22848ft 350kts
30-Jan-20 18:06 33.566832 -114.433726 89 21654ft 367kts
30-Jan-20 18:07 33.555732 -114.312234 90 19981ft 366kts
30-Jan-20 18:08 33.546028 -114.206869 90 18399ft 361kts
30-Jan-20 18:09 33.535022 -114.088617 90 17036ft 350kts
30-Jan-20 18:10 33.524365 -113.974851 90 16755ft 345kts
30-Jan-20 18:11 33.514244 -113.860519 90 15344ft 341kts
30-Jan-20 18:13 33.504883 -113.747964 90 13742ft 338kts
30-Jan-20 18:14 33.496394 -113.638475 90 12142ft 320kts
30-Jan-20 18:15 33.488932 -113.534547 90 10542ft 311kts
30-Jan-20 18:16 33.482638 -113.434059 89 10009ft 291kts
30-Jan-20 18:17 33.476181 -113.337284 90 10009ft 290kts
30-Jan-20 18:18 33.469839 -113.241620 90 10009ft 289kts
30-Jan-20 18:19 33.463514 -113.145685 90 10009ft 289kts
30-Jan-20 18:20 33.457268 -113.049697 90 10009ft 291kts
30-Jan-20 18:21 33.451154 -112.953084 90 10010ft 290kts
30-Jan-20 18:22 33.434210 -112.860239 100 9171ft 281kts
30-Jan-20 18:23 33.416893 -112.770625 99 8013ft 269kts
30-Jan-20 18:24 33.400158 -112.682412 99 8010ft 272kts
30-Jan-20 18:25 33.383317 -112.593415 99 8008ft 266kts
30-Jan-20 18:26 33.367345 -112.509347 99 8010ft 258kts
30-Jan-20 18:27 33.356807 -112.424234 89 7717ft 253kts
30-Jan-20 18:28 33.354098 -112.342087 90 6421ft 245kts
30-Jan-20 18:29 33.352782 -112.259004 89 5025ft 242kts
30-Jan-20 18:30 33.351835 -112.179606 89 4995ft 237kts
30-Jan-20 18:31 33.350679 -112.099842 89 4986ft 239kts
30-Jan-20 18:31 33.349522 -112.034088 89 4986ft 238kts
30-Jan-20 18:33 33.347494 -111.942411 89 4997ft 236kts
30-Jan-20 18:34 33.355746 -111.868048 33 3998ft 227kts
30-Jan-20 18:34 33.401041 -111.854647 1 3018ft 188kts
30-Jan-20 18:35 33.427057 -111.894534 281 2174ft 139kts
30-Jan-20 18:36 33.428123 -111.938083 271 1870ft 119kts
30-Jan-20 18:38 33.428604 -111.977186 274 1674ft 87kts
30-Jan-20 18:38 33.428862 -111.999931 271 1246ft 78kts
30-Jan-20 18:40 33.427730 -112.012219 268 1134ft 11kts
30-Jan-20 18:40 33.427735 -112.017113 268 1134ft 13kts
30-Jan-20 18:41 33.426942 -112.021128 180 1134ft 14kts
30-Jan-20 18:42 33.425984 -112.020280 88 1134ft 0kts
30-Jan-20 18:43 33.425984 -112.020280 88 1134ft 0kts

Navigation Log

Ident Type
Flight plan parsing failed, navigation log unavailable